Decoded Metar for LEZL (SEVILLA in SPAIN) (IATA:SVQ) | Meteo·Mobile Aviation Weather
aviador You're here:

LEZL Decoded Metar

SEVILLA in SPAIN
Report Time2019-05-21 14:00:00
UTC Time2019-05-21 14:31:05
Flight Rules vfr VFR
Wind230° at 04 Gusting to 14 kt
W.Decomp.*RWY 27: 3.2 kt HW 2.5 kt LCW
Visibility9999 m
Phenomena:N/A
Clouds:N/A
Expected CloudBase > 8,400 ft AGL from Temp-Dew spread
CeilingNone
Temp29°C (ISA +14)
Dew Point08°C (27% RH)
Heat Index27.7°C
AAT27.1°C
QNH1013 hPa
Density Alt1,880 ft
Elevation102 ft
Report Wrong Elevation
Raw Report
LEZL 211400Z 23004G14KT CAVOK 29/08 Q1013 NOSIG=

Extra information for LEZL:More info

Metar Taf Metar & Taf Last 4 Metars F.Rules Stats Wind Profile Meteogram Temp Stats Airport Information Weather charts Add Link Nearby VenuesMetar ALERT Operation Metar Decoded Social comments